Terminal Aerodrome Forecast
Issued by NWS

Home | Current Version | Previous Version | Text Only | Print | Product List | Glossary On
Versions: 1 2 3 4 5 6 7 8 9 10 11 12 13 14 15 16 17
000
FTUS42 KTAE 260059 AAA
TAFECP
TAF AMD
KECP 260059Z 2601/2624 24004KT P6SM BKN120
     FM260300 25008KT P6SM BKN015
     FM260600 27008KT P6SM BKN007
     FM261500 27010KT P6SM BKN025
     FM261800 27013KT P6SM SCT040=

USA.gov is the U.S. government's official web portal to all federal, state and local government web resources and services.